Terminal Aerodrome Forecast
Issued by NWS Duluth, MN

Home | Current Version | Previous Version | Text Only | Print | Product List | Glossary On
Versions: 1 2 3 4 5 6 7 8 9 10 11 12 13 14 15 16 17 18 19 20 21
000
FTUS43 KDLH 232300 RRA
TAFDLH
TAF
KDLH 232356Z 2400/2424 22019G26KT P6SM BKN110 WS020/24045KT
      TEMPO 2400/2403 6SM BLSN
     FM240300 24016G24KT 5SM -SN BKN040 OVC080 WS020/24045KT
      TEMPO 2404/2408 1 1/2SM -SN BKN025
     FM241000 26011KT 6SM -SHSN BKN025
     FM241400 31015G25KT P6SM SCT025 BKN050
     FM242200 32014KT P6SM SCT015 BKN080=

USA.gov is the U.S. government's official web portal to all federal, state and local government web resources and services.